createdAt,value
2023-02-09T00:02:27.775Z,57.88
2023-02-09T00:05:29.362Z,58.32
2023-02-09T00:08:31.609Z,58.03
2023-02-09T00:11:51.953Z,58.19
2023-02-09T00:14:53.489Z,57.95
2023-02-09T00:17:55.050Z,58.05
2023-02-09T00:21:08.082Z,58.05
2023-02-09T00:24:10.827Z,57.79
2023-02-09T00:27:12.473Z,57.62
2023-02-09T00:30:14.240Z,58.01
2023-02-09T00:33:15.746Z,57.92
2023-02-09T00:36:17.362Z,58.05
2023-02-09T00:39:18.953Z,57.86
2023-02-09T00:42:20.522Z,58.11
2023-02-09T00:45:22.118Z,57.66
2023-02-09T00:48:23.764Z,58.18
2023-02-09T00:51:25.326Z,58.34
2023-02-09T00:54:27.253Z,58.20
2023-02-09T00:57:28.921Z,58.05
2023-02-09T01:00:30.630Z,57.78
2023-02-09T01:03:32.234Z,58.22
2023-02-09T01:06:34.353Z,57.82
2023-02-09T01:09:35.895Z,57.60
2023-02-09T01:12:40.723Z,57.94
2023-02-09T01:15:42.342Z,58.01
2023-02-09T01:18:44.673Z,58.09
2023-02-09T01:21:48.312Z,57.80
2023-02-09T01:24:50.148Z,58.26
2023-02-09T01:27:51.792Z,57.75
2023-02-09T01:30:53.505Z,57.73
2023-02-09T01:33:56.944Z,57.56
2023-02-09T01:36:58.618Z,58.19
2023-02-09T01:40:00.200Z,57.92
2023-02-09T01:43:01.783Z,58.20
2023-02-09T01:46:03.398Z,57.81
2023-02-09T01:49:08.058Z,58.20
2023-02-09T01:52:14.889Z,57.68
2023-02-09T01:55:20.611Z,58.17
2023-02-09T01:58:24.925Z,57.78
2023-02-09T02:01:27.013Z,57.73
2023-02-09T02:04:28.963Z,57.78
2023-02-09T02:08:00.918Z,57.43
2023-02-09T02:11:03.914Z,57.91
2023-02-09T02:14:05.697Z,57.89
2023-02-09T02:17:13.073Z,57.82
2023-02-09T02:20:33.157Z,58.06
2023-02-09T02:24:06.126Z,57.70
2023-02-09T02:27:17.400Z,57.59
2023-02-09T02:30:28.120Z,58.39
2023-02-09T02:33:46.005Z,57.68
2023-02-09T02:36:53.415Z,57.50
2023-02-09T02:39:57.889Z,58.01
2023-02-09T02:43:02.392Z,57.54
2023-02-09T02:46:16.705Z,58.10
2023-02-09T02:49:44.542Z,58.00
2023-02-09T02:52:48.221Z,57.42
2023-02-09T02:55:50.240Z,58.02
2023-02-09T02:58:56.211Z,57.78
2023-02-09T03:02:04.726Z,57.54
2023-02-09T03:05:08.258Z,58.00
2023-02-09T03:08:09.867Z,57.42
2023-02-09T03:11:11.779Z,58.03
2023-02-09T03:14:19.380Z,57.52
2023-02-09T03:17:28.848Z,58.00
2023-02-09T03:20:50.999Z,57.61
2023-02-09T03:24:24.433Z,58.12
2023-02-09T03:27:32.046Z,58.25
2023-02-09T03:30:35.632Z,57.97
2023-02-09T03:33:39.474Z,57.24
2023-02-09T03:36:41.245Z,57.98
2023-02-09T03:39:42.824Z,57.65
2023-02-09T03:42:44.342Z,57.45
2023-02-09T03:45:45.938Z,57.56
2023-02-09T03:48:47.953Z,57.58
2023-02-09T03:51:49.509Z,57.48
2023-02-09T03:54:51.064Z,57.73
2023-02-09T03:57:52.804Z,57.54
2023-02-09T04:00:54.395Z,57.62
2023-02-09T04:03:55.994Z,57.61
2023-02-09T04:06:58.072Z,57.95
2023-02-09T04:09:59.652Z,57.85
2023-02-09T04:13:01.177Z,58.19
2023-02-09T04:16:02.834Z,57.62
2023-02-09T04:19:05.162Z,57.42
2023-02-09T04:22:08.262Z,57.43
2023-02-09T04:25:09.872Z,58.03
2023-02-09T04:28:11.561Z,57.84
2023-02-09T04:31:13.479Z,57.51
2023-02-09T04:34:15.093Z,57.54
2023-02-09T04:37:16.623Z,57.43
2023-02-09T04:40:18.236Z,57.25
2023-02-09T04:43:20.278Z,57.17
2023-02-09T04:46:21.842Z,57.47
2023-02-09T04:49:23.404Z,57.66
2023-02-09T04:52:24.923Z,57.22
2023-02-09T04:55:26.756Z,57.59
2023-02-09T04:58:46.918Z,57.23
2023-02-09T05:01:48.524Z,57.56
2023-02-09T05:04:50.035Z,57.27
2023-02-09T05:07:51.579Z,57.62
2023-02-09T05:10:54.014Z,57.29
2023-02-09T05:13:55.902Z,57.17
2023-02-09T05:16:57.504Z,57.49
2023-02-09T05:19:59.562Z,56.96
2023-02-09T05:23:01.127Z,57.41
2023-02-09T05:26:02.830Z,57.71
2023-02-09T05:29:04.590Z,57.47
2023-02-09T05:32:06.217Z,57.17
2023-02-09T05:35:08.551Z,57.45
2023-02-09T05:38:10.120Z,56.73
2023-02-09T05:41:36.648Z,57.53
2023-02-09T05:44:38.235Z,56.85
2023-02-09T05:47:39.954Z,57.10
2023-02-09T05:50:41.644Z,57.33
2023-02-09T05:53:43.199Z,57.22
2023-02-09T05:56:44.799Z,57.19
2023-02-09T05:59:46.385Z,57.44
2023-02-09T06:02:47.932Z,57.41
2023-02-09T06:05:49.514Z,57.80
2023-02-09T06:08:51.073Z,57.59
2023-02-09T06:11:52.667Z,57.57
2023-02-09T06:14:54.221Z,57.05
2023-02-09T06:17:55.768Z,57.32
2023-02-09T06:20:58.477Z,56.91
2023-02-09T06:23:59.986Z,57.23
2023-02-09T06:27:01.598Z,57.00
2023-02-09T06:30:03.604Z,57.29
2023-02-09T06:33:05.178Z,57.14
2023-02-09T06:36:08.112Z,57.14
2023-02-09T06:39:10.524Z,56.95
2023-02-09T06:42:12.079Z,56.95
2023-02-09T06:45:15.459Z,57.06
2023-02-09T06:48:17.112Z,57.27
2023-02-09T06:51:18.762Z,57.30
2023-02-09T06:54:20.760Z,56.90
2023-02-09T06:57:22.280Z,57.29
2023-02-09T07:00:24.263Z,57.00
2023-02-09T07:03:25.903Z,56.96
2023-02-09T07:06:27.465Z,56.76
2023-02-09T07:09:29.010Z,57.31
2023-02-09T07:12:30.689Z,56.99
2023-02-09T07:15:32.242Z,57.32
2023-02-09T07:18:34.236Z,56.70
2023-02-09T07:21:35.792Z,56.98
2023-02-09T07:24:37.370Z,56.89
2023-02-09T07:27:43.189Z,57.40
2023-02-09T07:30:46.471Z,57.26
2023-02-09T07:33:48.426Z,56.58
2023-02-09T07:36:50.059Z,56.98
2023-02-09T07:39:51.786Z,56.91
2023-02-09T07:42:53.353Z,57.02
2023-02-09T07:46:00.634Z,57.15
2023-02-09T07:49:02.248Z,56.82
2023-02-09T07:52:04.125Z,57.16
2023-02-09T07:55:06.328Z,57.15
2023-02-09T07:58:07.863Z,57.02
2023-02-09T08:01:12.135Z,57.03
2023-02-09T08:04:13.740Z,56.55
2023-02-09T08:07:15.649Z,56.93
2023-02-09T08:10:18.862Z,56.99
2023-02-09T08:13:20.696Z,57.04
2023-02-09T08:16:26.436Z,56.58
2023-02-09T08:19:28.691Z,56.60
2023-02-09T08:22:34.966Z,56.95
2023-02-09T08:25:37.407Z,56.80
2023-02-09T08:28:44.927Z,56.68
2023-02-09T08:31:46.990Z,56.63
2023-02-09T08:34:48.604Z,56.45
2023-02-09T08:37:50.236Z,56.59
2023-02-09T08:40:51.811Z,56.43
2023-02-09T08:43:53.406Z,56.43
2023-02-09T08:46:55.120Z,57.83
2023-02-09T08:49:56.927Z,57.13
2023-02-09T08:52:59.946Z,56.77
2023-02-09T08:56:01.624Z,56.63
2023-02-09T08:59:03.478Z,57.19
2023-02-09T09:02:05.080Z,56.88
2023-02-09T09:05:07.076Z,56.64
2023-02-09T09:08:10.929Z,56.64
2023-02-09T09:11:14.707Z,56.49
2023-02-09T09:14:16.353Z,56.60
2023-02-09T09:17:17.890Z,56.63
2023-02-09T09:20:19.603Z,56.57
2023-02-09T09:23:21.305Z,56.53
2023-02-09T09:26:22.936Z,56.52
2023-02-09T09:29:25.085Z,56.64
2023-02-09T09:32:27.294Z,56.59
2023-02-09T09:35:31.281Z,56.49
2023-02-09T09:38:35.339Z,56.49
2023-02-09T09:41:38.088Z,56.56
2023-02-09T09:44:47.107Z,56.62
2023-02-09T09:47:49.442Z,56.37
2023-02-09T09:50:55.899Z,56.37
2023-02-09T09:53:59.459Z,56.47
2023-02-09T09:57:02.073Z,56.33
2023-02-09T10:00:05.003Z,56.19
2023-02-09T10:03:18.684Z,56.22
2023-02-09T10:06:22.732Z,56.25
2023-02-09T10:09:28.221Z,56.21
2023-02-09T10:12:36.831Z,56.21
2023-02-09T10:15:38.571Z,56.07
2023-02-09T10:18:40.906Z,56.07
2023-02-09T10:21:42.450Z,55.95
2023-02-09T10:24:44.005Z,56.20
2023-02-09T10:27:47.015Z,56.20
2023-02-09T10:30:51.733Z,56.00
2023-02-09T10:33:58.976Z,56.06
2023-02-09T10:37:18.980Z,55.89
2023-02-09T10:40:32.754Z,55.75
2023-02-09T10:43:35.241Z,55.67
2023-02-09T10:46:38.078Z,55.82
2023-02-09T10:49:42.369Z,55.85
2023-02-09T10:53:18.636Z,56.16
2023-02-09T10:56:23.354Z,55.66
2023-02-09T10:59:25.836Z,55.75
2023-02-09T11:02:38.279Z,55.64
2023-02-09T11:05:39.875Z,55.74
2023-02-09T11:08:49.739Z,55.81
2023-02-09T11:11:57.052Z,55.74
2023-02-09T11:14:58.660Z,55.66
2023-02-09T11:18:15.861Z,55.68
2023-02-09T11:21:40.739Z,55.84
2023-02-09T11:25:28.784Z,55.59
2023-02-09T11:28:30.333Z,55.63
2023-02-09T11:31:46.824Z,55.79
2023-02-09T11:35:00.995Z,55.35
2023-02-09T11:38:10.903Z,55.54
2023-02-09T11:41:37.412Z,55.64
2023-02-09T11:44:51.760Z,55.58
2023-02-09T11:48:11.927Z,55.88
2023-02-09T11:51:23.566Z,56.53
2023-02-09T11:54:32.911Z,55.82
2023-02-09T11:57:46.394Z,55.41
2023-02-09T12:01:10.146Z,55.55
2023-02-09T12:04:31.083Z,55.39
2023-02-09T12:07:43.809Z,55.72
2023-02-09T12:11:12.532Z,55.53
2023-02-09T12:14:35.208Z,55.67
2023-02-09T12:17:56.659Z,55.75
2023-02-09T12:21:01.214Z,55.67
2023-02-09T12:24:26.304Z,55.73
2023-02-09T12:27:28.111Z,55.60
2023-02-09T12:30:45.173Z,55.73
2023-02-09T12:33:47.065Z,55.59
2023-02-09T12:37:13.504Z,55.71
2023-02-09T12:40:21.108Z,56.07
2023-02-09T12:43:28.151Z,55.37
2023-02-09T12:46:29.753Z,55.85
2023-02-09T12:49:33.894Z,55.37
2023-02-09T12:52:35.487Z,55.83
2023-02-09T12:55:38.160Z,55.64
2023-02-09T12:58:54.692Z,55.62
2023-02-09T13:02:08.162Z,55.66
2023-02-09T13:05:21.059Z,55.83
2023-02-09T13:08:34.418Z,55.39
2023-02-09T13:11:51.540Z,55.80
2023-02-09T13:14:53.054Z,55.41
2023-02-09T13:18:00.686Z,55.29
2023-02-09T13:21:26.931Z,55.38
2023-02-09T13:24:37.876Z,55.67
2023-02-09T13:27:50.148Z,55.28
2023-02-09T13:30:52.241Z,55.62
2023-02-09T13:34:00.010Z,55.45
2023-02-09T13:37:04.547Z,55.38
2023-02-09T13:40:21.812Z,55.40
2023-02-09T13:43:30.943Z,55.29
2023-02-09T13:46:35.258Z,55.60
2023-02-09T13:49:36.954Z,55.57
2023-02-09T13:52:40.131Z,55.32
2023-02-09T13:55:42.944Z,55.64
2023-02-09T13:58:44.699Z,55.38
2023-02-09T14:01:46.563Z,55.43
2023-02-09T14:04:52.157Z,55.55
2023-02-09T14:07:53.886Z,55.45
2023-02-09T14:11:01.106Z,55.38
2023-02-09T14:14:25.662Z,55.42
2023-02-09T14:17:30.624Z,55.67
2023-02-09T14:20:32.328Z,55.14
2023-02-09T14:23:35.253Z,55.55
2023-02-09T14:26:44.992Z,55.53
2023-02-09T14:29:48.877Z,55.35
2023-02-09T14:32:56.806Z,55.37
2023-02-09T14:35:59.850Z,55.53
2023-02-09T14:39:16.645Z,55.44
2023-02-09T14:42:18.369Z,55.41
2023-02-09T14:45:30.451Z,55.69
2023-02-09T14:48:31.995Z,55.63
2023-02-09T14:51:33.550Z,55.52
2023-02-09T14:54:48.445Z,55.45
2023-02-09T14:57:50.025Z,55.64
2023-02-09T15:00:53.559Z,55.68
2023-02-09T15:03:55.122Z,55.62
2023-02-09T15:07:01.978Z,55.65
2023-02-09T15:10:29.198Z,55.34
2023-02-09T15:13:33.040Z,55.42
2023-02-09T15:16:34.626Z,55.43
2023-02-09T15:19:36.204Z,55.39
2023-02-09T15:22:37.783Z,55.60
2023-02-09T15:25:41.054Z,55.36
2023-02-09T15:28:43.103Z,55.50
2023-02-09T15:31:44.713Z,55.51
2023-02-09T15:34:46.355Z,55.48
2023-02-09T15:37:59.704Z,55.52
2023-02-09T15:41:19.688Z,55.63
2023-02-09T15:44:40.440Z,55.37
2023-02-09T15:47:53.408Z,55.79
2023-02-09T15:50:55.277Z,55.39
2023-02-09T15:54:00.530Z,55.13
2023-02-09T15:57:02.346Z,55.51
2023-02-09T16:00:15.077Z,55.44
2023-02-09T16:03:19.402Z,55.15
2023-02-09T16:06:24.892Z,55.22
2023-02-09T16:09:28.610Z,55.50
2023-02-09T16:12:30.533Z,55.16
2023-02-09T16:15:32.113Z,55.14
2023-02-09T16:18:33.648Z,55.18
2023-02-09T16:21:35.851Z,55.52
2023-02-09T16:24:43.772Z,55.21
2023-02-09T16:27:45.487Z,55.50
2023-02-09T16:30:55.300Z,55.23
2023-02-09T16:33:56.844Z,55.10
2023-02-09T16:36:58.598Z,55.34
2023-02-09T16:40:01.687Z,55.28
2023-02-09T16:43:03.343Z,55.25
2023-02-09T16:46:05.617Z,55.15
2023-02-09T16:49:24.005Z,55.26
2023-02-09T16:52:26.674Z,55.39
2023-02-09T16:55:29.795Z,55.41
2023-02-09T16:58:32.314Z,55.32
2023-02-09T17:01:34.482Z,55.17
2023-02-09T17:04:37.834Z,55.07
2023-02-09T17:07:52.536Z,55.17
2023-02-09T17:10:56.403Z,55.48
2023-02-09T17:13:57.959Z,55.10
2023-02-09T17:16:59.592Z,55.35
2023-02-09T17:20:01.133Z,55.16
2023-02-09T17:23:02.786Z,54.95
2023-02-09T17:26:04.584Z,55.06
2023-02-09T17:29:06.622Z,55.49
2023-02-09T17:32:13.269Z,55.29
2023-02-09T17:35:38.176Z,55.18
2023-02-09T17:38:42.557Z,55.23
2023-02-09T17:41:46.560Z,55.12
2023-02-09T17:44:48.403Z,55.20
2023-02-09T17:47:57.593Z,55.38
2023-02-09T17:51:00.575Z,55.34
2023-02-09T17:54:03.324Z,55.44
2023-02-09T17:57:05.635Z,55.31
2023-02-09T18:00:07.722Z,55.58
2023-02-09T18:03:16.714Z,55.38
2023-02-09T18:06:21.516Z,55.08
2023-02-09T18:09:23.117Z,55.37
2023-02-09T18:12:29.031Z,55.28
2023-02-09T18:15:35.398Z,55.46
2023-02-09T18:18:36.992Z,55.22
2023-02-09T18:21:44.940Z,55.48
2023-02-09T18:24:46.553Z,55.64
2023-02-09T18:27:48.672Z,55.11
2023-02-09T18:30:50.275Z,55.62
2023-02-09T18:33:51.897Z,55.32
2023-02-09T18:36:53.722Z,55.70
2023-02-09T18:39:55.275Z,55.48
2023-02-09T18:42:56.841Z,55.41
2023-02-09T18:45:58.525Z,55.40
2023-02-09T18:49:01.889Z,55.20
2023-02-09T18:52:06.053Z,55.49
2023-02-09T18:55:07.882Z,55.25
2023-02-09T18:58:09.597Z,55.56
2023-02-09T19:01:12.713Z,55.27
2023-02-09T19:04:14.348Z,55.35
2023-02-09T19:07:16.426Z,55.27
2023-02-09T19:10:20.302Z,55.46
2023-02-09T19:13:21.855Z,55.70
2023-02-09T19:16:23.515Z,55.77
2023-02-09T19:19:25.352Z,55.72
2023-02-09T19:22:27.065Z,55.56
2023-02-09T19:25:28.864Z,55.32
2023-02-09T19:28:31.145Z,55.74
2023-02-09T19:31:32.785Z,55.77
2023-02-09T19:34:37.119Z,55.49
2023-02-09T19:37:40.479Z,55.71
2023-02-09T19:40:43.254Z,55.74
2023-02-09T19:43:44.838Z,55.72
2023-02-09T19:46:46.420Z,55.67
2023-02-09T19:49:48.046Z,55.85
2023-02-09T19:52:50.382Z,55.91
2023-02-09T19:55:53.448Z,55.64
2023-02-09T19:58:55.164Z,55.74
2023-02-09T20:01:56.859Z,55.58
2023-02-09T20:04:58.490Z,55.93
2023-02-09T20:08:00.082Z,56.00
2023-02-09T20:11:05.213Z,55.81
2023-02-09T20:14:06.945Z,56.02
2023-02-09T20:17:08.806Z,56.07
2023-02-09T20:20:11.603Z,56.04
2023-02-09T20:23:15.507Z,56.01
2023-02-09T20:26:23.612Z,55.93
2023-02-09T20:29:25.210Z,56.06
2023-02-09T20:32:30.610Z,56.04
2023-02-09T20:35:32.110Z,55.93
2023-02-09T20:38:34.519Z,55.87
2023-02-09T20:41:36.066Z,56.13
2023-02-09T20:44:56.581Z,55.81
2023-02-09T20:47:58.194Z,55.85
2023-02-09T20:50:59.766Z,55.90
2023-02-09T20:54:01.334Z,55.85
2023-02-09T20:57:04.577Z,56.16
2023-02-09T21:00:10.285Z,55.96
2023-02-09T21:03:12.451Z,56.05
2023-02-09T21:06:14.350Z,56.21
2023-02-09T21:09:16.067Z,56.14
2023-02-09T21:12:17.647Z,56.35
2023-02-09T21:15:19.210Z,55.96
2023-02-09T21:18:21.974Z,56.29
2023-02-09T21:21:26.280Z,56.29
2023-02-09T21:24:28.088Z,56.35
2023-02-09T21:27:29.716Z,56.46
2023-02-09T21:30:31.359Z,56.42
2023-02-09T21:33:35.235Z,56.26
2023-02-09T21:36:38.105Z,56.11
2023-02-09T21:39:40.593Z,56.43
2023-02-09T21:42:42.889Z,56.18
2023-02-09T21:45:44.522Z,56.30
2023-02-09T21:48:46.387Z,56.22
2023-02-09T21:51:47.926Z,56.32
2023-02-09T21:54:49.867Z,56.50
2023-02-09T21:57:51.489Z,56.31
2023-02-09T22:00:57.599Z,56.48
2023-02-09T22:03:59.323Z,56.61
2023-02-09T22:07:00.883Z,56.50
2023-02-09T22:10:02.770Z,56.24
2023-02-09T22:13:08.539Z,56.18
2023-02-09T22:16:11.242Z,56.56
2023-02-09T22:19:12.879Z,56.59
2023-02-09T22:22:14.442Z,56.45
2023-02-09T22:25:16.093Z,56.81
2023-02-09T22:28:17.645Z,56.32
2023-02-09T22:31:21.554Z,56.67
2023-02-09T22:34:23.070Z,56.39
2023-02-09T22:37:24.672Z,56.50
2023-02-09T22:40:26.246Z,56.65
2023-02-09T22:43:27.885Z,56.66
2023-02-09T22:46:38.156Z,56.68
2023-02-09T22:49:39.761Z,56.70
2023-02-09T22:52:41.293Z,56.67
2023-02-09T22:55:42.883Z,56.81
2023-02-09T22:58:44.392Z,56.78
2023-02-09T23:01:46.194Z,56.63
2023-02-09T23:04:47.762Z,56.48
2023-02-09T23:07:49.357Z,56.34
2023-02-09T23:10:50.896Z,56.82
2023-02-09T23:14:03.798Z,56.49
2023-02-09T23:17:10.755Z,56.75
2023-02-09T23:20:12.289Z,56.70
2023-02-09T23:23:16.341Z,56.75
2023-02-09T23:26:19.450Z,56.85
2023-02-09T23:29:21.743Z,56.90
2023-02-09T23:32:23.277Z,56.76
2023-02-09T23:35:24.845Z,56.47
2023-02-09T23:38:26.429Z,56.83
2023-02-09T23:41:28.072Z,56.92
2023-02-09T23:44:29.629Z,56.93
2023-02-09T23:47:31.243Z,56.68
2023-02-09T23:50:32.838Z,56.78
2023-02-09T23:53:35.164Z,56.87
2023-02-09T23:56:37.389Z,56.99
2023-02-09T23:59:39.569Z,57.04
